sensor_id;sensor_type;location;lat;lon;timestamp;P1;durP1;ratioP1;P2;durP2;ratioP2
56537;SDS011;42435;53.292;6.000;2023-03-23T00:00:38;11.10;;;7.38;;
56537;SDS011;42435;53.292;6.000;2023-03-23T00:03:09;10.80;;;7.28;;
56537;SDS011;42435;53.292;6.000;2023-03-23T00:05:50;10.85;;;6.50;;
56537;SDS011;42435;53.292;6.000;2023-03-23T00:08:39;8.90;;;5.88;;
56537;SDS011;42435;53.292;6.000;2023-03-23T00:11:44;8.40;;;5.03;;
56537;SDS011;42435;53.292;6.000;2023-03-23T00:14:22;8.20;;;5.38;;
56537;SDS011;42435;53.292;6.000;2023-03-23T00:16:58;9.65;;;5.95;;
56537;SDS011;42435;53.292;6.000;2023-03-23T00:19:39;9.02;;;6.47;;
56537;SDS011;42435;53.292;6.000;2023-03-23T00:22:15;9.63;;;6.05;;
56537;SDS011;42435;53.292;6.000;2023-03-23T00:24:51;9.80;;;7.13;;
56537;SDS011;42435;53.292;6.000;2023-03-23T00:27:25;12.25;;;8.13;;
56537;SDS011;42435;53.292;6.000;2023-03-23T00:29:54;12.52;;;8.45;;
56537;SDS011;42435;53.292;6.000;2023-03-23T00:32:54;14.32;;;9.60;;
56537;SDS011;42435;53.292;6.000;2023-03-23T00:35:23;15.02;;;9.48;;
56537;SDS011;42435;53.292;6.000;2023-03-23T00:37:52;15.20;;;9.90;;
56537;SDS011;42435;53.292;6.000;2023-03-23T00:40:29;15.60;;;9.93;;
56537;SDS011;42435;53.292;6.000;2023-03-23T00:43:06;18.35;;;12.23;;
56537;SDS011;42435;53.292;6.000;2023-03-23T00:45:36;24.90;;;15.40;;
56537;SDS011;42435;53.292;6.000;2023-03-23T00:48:02;22.15;;;15.75;;
56537;SDS011;42435;53.292;6.000;2023-03-23T00:50:32;23.90;;;17.83;;
56537;SDS011;42435;53.292;6.000;2023-03-23T00:53:14;31.38;;;20.15;;
56537;SDS011;42435;53.292;6.000;2023-03-23T00:59:20;29.35;;;18.95;;
56537;SDS011;42435;53.292;6.000;2023-03-23T01:01:59;28.42;;;19.30;;
56537;SDS011;42435;53.292;6.000;2023-03-23T01:04:33;23.92;;;16.80;;
56537;SDS011;42435;53.292;6.000;2023-03-23T01:07:04;25.95;;;15.25;;
56537;SDS011;42435;53.292;6.000;2023-03-23T01:09:33;22.98;;;16.33;;
56537;SDS011;42435;53.292;6.000;2023-03-23T01:12:03;17.23;;;12.93;;
56537;SDS011;42435;53.292;6.000;2023-03-23T01:14:32;16.27;;;12.10;;
56537;SDS011;42435;53.292;6.000;2023-03-23T01:17:21;14.32;;;10.68;;
56537;SDS011;42435;53.292;6.000;2023-03-23T01:20:02;21.25;;;11.48;;
56537;SDS011;42435;53.292;6.000;2023-03-23T01:22:39;13.32;;;9.95;;
56537;SDS011;42435;53.292;6.000;2023-03-23T01:25:19;16.83;;;10.32;;
56537;SDS011;42435;53.292;6.000;2023-03-23T01:28:11;15.95;;;11.13;;
56537;SDS011;42435;53.292;6.000;2023-03-23T01:30:40;14.82;;;11.55;;
56537;SDS011;42435;53.292;6.000;2023-03-23T01:33:06;16.13;;;11.70;;
56537;SDS011;42435;53.292;6.000;2023-03-23T01:35:37;17.80;;;11.57;;
56537;SDS011;42435;53.292;6.000;2023-03-23T01:38:16;17.85;;;12.38;;
56537;SDS011;42435;53.292;6.000;2023-03-23T01:40:41;19.42;;;11.60;;
56537;SDS011;42435;53.292;6.000;2023-03-23T01:43:11;19.88;;;12.20;;
56537;SDS011;42435;53.292;6.000;2023-03-23T01:45:53;17.20;;;11.38;;
56537;SDS011;42435;53.292;6.000;2023-03-23T01:51:03;15.65;;;10.48;;
56537;SDS011;42435;53.292;6.000;2023-03-23T01:53:36;17.33;;;10.52;;
56537;SDS011;42435;53.292;6.000;2023-03-23T01:56:22;18.05;;;10.45;;
56537;SDS011;42435;53.292;6.000;2023-03-23T01:58:55;19.13;;;10.75;;
56537;SDS011;42435;53.292;6.000;2023-03-23T02:01:21;17.60;;;10.38;;
56537;SDS011;42435;53.292;6.000;2023-03-23T02:03:50;16.50;;;9.70;;
56537;SDS011;42435;53.292;6.000;2023-03-23T02:06:39;12.25;;;8.90;;
56537;SDS011;42435;53.292;6.000;2023-03-23T02:09:26;14.00;;;8.63;;
56537;SDS011;42435;53.292;6.000;2023-03-23T02:11:52;12.77;;;7.63;;
56537;SDS011;42435;53.292;6.000;2023-03-23T02:14:19;11.20;;;7.50;;
56537;SDS011;42435;53.292;6.000;2023-03-23T02:16:52;11.93;;;7.30;;
56537;SDS011;42435;53.292;6.000;2023-03-23T02:19:41;12.45;;;7.38;;
56537;SDS011;42435;53.292;6.000;2023-03-23T02:37:03;9.85;;;5.90;;
56537;SDS011;42435;53.292;6.000;2023-03-23T02:42:54;10.10;;;6.07;;
56537;SDS011;42435;53.292;6.000;2023-03-23T02:45:21;11.68;;;5.47;;
56537;SDS011;42435;53.292;6.000;2023-03-23T02:47:50;7.65;;;5.47;;
56537;SDS011;42435;53.292;6.000;2023-03-23T02:50:21;10.70;;;5.65;;
56537;SDS011;42435;53.292;6.000;2023-03-23T02:52:50;7.70;;;4.68;;
56537;SDS011;42435;53.292;6.000;2023-03-23T02:55:17;11.60;;;5.43;;
56537;SDS011;42435;53.292;6.000;2023-03-23T02:57:45;10.20;;;5.18;;
56537;SDS011;42435;53.292;6.000;2023-03-23T03:00:12;11.30;;;5.72;;
56537;SDS011;42435;53.292;6.000;2023-03-23T03:02:44;9.18;;;4.90;;
56537;SDS011;42435;53.292;6.000;2023-03-23T03:05:23;7.85;;;4.85;;
56537;SDS011;42435;53.292;6.000;2023-03-23T03:07:54;7.78;;;4.97;;
56537;SDS011;42435;53.292;6.000;2023-03-23T03:10:29;8.60;;;5.30;;
56537;SDS011;42435;53.292;6.000;2023-03-23T03:13:14;13.70;;;5.43;;
56537;SDS011;42435;53.292;6.000;2023-03-23T03:16:00;7.68;;;4.90;;
56537;SDS011;42435;53.292;6.000;2023-03-23T03:18:28;8.93;;;5.35;;
56537;SDS011;42435;53.292;6.000;2023-03-23T03:21:35;12.65;;;6.20;;
56537;SDS011;42435;53.292;6.000;2023-03-23T03:24:14;10.60;;;5.45;;
56537;SDS011;42435;53.292;6.000;2023-03-23T03:26:44;8.57;;;5.00;;
56537;SDS011;42435;53.292;6.000;2023-03-23T03:29:16;7.18;;;4.78;;
56537;SDS011;42435;53.292;6.000;2023-03-23T03:31:45;9.65;;;5.15;;
56537;SDS011;42435;53.292;6.000;2023-03-23T03:34:14;8.30;;;4.57;;
56537;SDS011;42435;53.292;6.000;2023-03-23T03:36:43;12.57;;;5.05;;
56537;SDS011;42435;53.292;6.000;2023-03-23T03:39:20;8.82;;;4.75;;
56537;SDS011;42435;53.292;6.000;2023-03-23T03:42:06;11.95;;;5.47;;
56537;SDS011;42435;53.292;6.000;2023-03-23T03:44:33;9.60;;;3.47;;
56537;SDS011;42435;53.292;6.000;2023-03-23T03:47:02;8.38;;;3.83;;
56537;SDS011;42435;53.292;6.000;2023-03-23T03:49:28;7.00;;;3.42;;
56537;SDS011;42435;53.292;6.000;2023-03-23T03:52:00;9.27;;;3.10;;
56537;SDS011;42435;53.292;6.000;2023-03-23T03:54:25;6.30;;;2.70;;
56537;SDS011;42435;53.292;6.000;2023-03-23T03:56:51;10.50;;;3.60;;
56537;SDS011;42435;53.292;6.000;2023-03-23T03:59:22;7.70;;;4.13;;
56537;SDS011;42435;53.292;6.000;2023-03-23T04:01:58;10.35;;;4.05;;
56537;SDS011;42435;53.292;6.000;2023-03-23T04:04:29;9.40;;;4.40;;
56537;SDS011;42435;53.292;6.000;2023-03-23T04:06:55;11.82;;;4.93;;
56537;SDS011;42435;53.292;6.000;2023-03-23T04:09:22;5.93;;;4.40;;
56537;SDS011;42435;53.292;6.000;2023-03-23T04:11:48;7.10;;;4.47;;
56537;SDS011;42435;53.292;6.000;2023-03-23T04:14:13;9.27;;;4.20;;
56537;SDS011;42435;53.292;6.000;2023-03-23T04:16:39;12.23;;;4.22;;
56537;SDS011;42435;53.292;6.000;2023-03-23T04:19:08;7.43;;;3.97;;
56537;SDS011;42435;53.292;6.000;2023-03-23T04:21:38;5.43;;;3.10;;
56537;SDS011;42435;53.292;6.000;2023-03-23T04:24:07;8.20;;;3.38;;
56537;SDS011;42435;53.292;6.000;2023-03-23T04:26:58;9.00;;;3.38;;
56537;SDS011;42435;53.292;6.000;2023-03-23T04:29:28;10.13;;;3.35;;
56537;SDS011;42435;53.292;6.000;2023-03-23T04:31:55;7.18;;;3.10;;
56537;SDS011;42435;53.292;6.000;2023-03-23T04:34:28;12.07;;;3.45;;
56537;SDS011;42435;53.292;6.000;2023-03-23T04:36:58;11.18;;;2.58;;
56537;SDS011;42435;53.292;6.000;2023-03-23T04:39:24;10.93;;;3.25;;
56537;SDS011;42435;53.292;6.000;2023-03-23T04:41:56;9.77;;;2.63;;
56537;SDS011;42435;53.292;6.000;2023-03-23T04:44:37;9.85;;;3.55;;
56537;SDS011;42435;53.292;6.000;2023-03-23T04:47:24;6.63;;;2.75;;
56537;SDS011;42435;53.292;6.000;2023-03-23T04:49:57;13.00;;;2.97;;
56537;SDS011;42435;53.292;6.000;2023-03-23T04:52:27;10.00;;;2.90;;
56537;SDS011;42435;53.292;6.000;2023-03-23T04:55:02;11.60;;;3.08;;
56537;SDS011;42435;53.292;6.000;2023-03-23T04:57:34;9.73;;;2.85;;
56537;SDS011;42435;53.292;6.000;2023-03-23T05:00:03;16.13;;;3.05;;
56537;SDS011;42435;53.292;6.000;2023-03-23T05:02:39;10.02;;;3.15;;
56537;SDS011;42435;53.292;6.000;2023-03-23T05:05:10;13.23;;;3.08;;
56537;SDS011;42435;53.292;6.000;2023-03-23T05:07:40;16.02;;;4.00;;
56537;SDS011;42435;53.292;6.000;2023-03-23T05:10:15;14.80;;;2.92;;
56537;SDS011;42435;53.292;6.000;2023-03-23T05:12:44;14.15;;;3.42;;
56537;SDS011;42435;53.292;6.000;2023-03-23T05:15:29;12.90;;;3.40;;
56537;SDS011;42435;53.292;6.000;2023-03-23T05:25:18;15.55;;;3.42;;
56537;SDS011;42435;53.292;6.000;2023-03-23T05:27:44;22.08;;;4.45;;
56537;SDS011;42435;53.292;6.000;2023-03-23T05:30:19;23.58;;;5.07;;
56537;SDS011;42435;53.292;6.000;2023-03-23T05:32:46;19.50;;;4.25;;
56537;SDS011;42435;53.292;6.000;2023-03-23T05:35:15;23.50;;;5.20;;
56537;SDS011;42435;53.292;6.000;2023-03-23T05:37:50;19.75;;;3.83;;
56537;SDS011;42435;53.292;6.000;2023-03-23T05:40:18;17.63;;;4.57;;
56537;SDS011;42435;53.292;6.000;2023-03-23T05:42:47;20.50;;;4.32;;
56537;SDS011;42435;53.292;6.000;2023-03-23T05:45:13;18.00;;;4.18;;
56537;SDS011;42435;53.292;6.000;2023-03-23T05:47:39;19.05;;;3.85;;
56537;SDS011;42435;53.292;6.000;2023-03-23T05:50:14;24.20;;;4.53;;
56537;SDS011;42435;53.292;6.000;2023-03-23T05:52:43;19.25;;;5.20;;
56537;SDS011;42435;53.292;6.000;2023-03-23T05:55:09;15.43;;;3.58;;
56537;SDS011;42435;53.292;6.000;2023-03-23T05:57:36;18.65;;;3.40;;
56537;SDS011;42435;53.292;6.000;2023-03-23T06:03:17;16.60;;;4.38;;
56537;SDS011;42435;53.292;6.000;2023-03-23T06:09:52;15.98;;;3.53;;
56537;SDS011;42435;53.292;6.000;2023-03-23T06:12:37;12.55;;;3.40;;
56537;SDS011;42435;53.292;6.000;2023-03-23T06:15:07;11.73;;;2.40;;
56537;SDS011;42435;53.292;6.000;2023-03-23T06:18:21;8.93;;;2.05;;
56537;SDS011;42435;53.292;6.000;2023-03-23T06:21:04;6.18;;;1.70;;
56537;SDS011;42435;53.292;6.000;2023-03-23T06:27:17;6.45;;;1.58;;
56537;SDS011;42435;53.292;6.000;2023-03-23T06:30:10;7.35;;;1.33;;
56537;SDS011;42435;53.292;6.000;2023-03-23T06:40:02;7.53;;;1.85;;
56537;SDS011;42435;53.292;6.000;2023-03-23T06:43:39;6.57;;;1.77;;
56537;SDS011;42435;53.292;6.000;2023-03-23T06:47:01;9.05;;;2.08;;
56537;SDS011;42435;53.292;6.000;2023-03-23T06:49:57;8.98;;;1.85;;
56537;SDS011;42435;53.292;6.000;2023-03-23T06:52:32;10.10;;;2.58;;
56537;SDS011;42435;53.292;6.000;2023-03-23T06:54:58;8.35;;;2.22;;
56537;SDS011;42435;53.292;6.000;2023-03-23T06:57:35;15.10;;;2.65;;
56537;SDS011;42435;53.292;6.000;2023-03-23T07:00:21;14.13;;;2.78;;
56537;SDS011;42435;53.292;6.000;2023-03-23T07:02:47;15.80;;;3.80;;
56537;SDS011;42435;53.292;6.000;2023-03-23T07:05:12;14.88;;;4.25;;
56537;SDS011;42435;53.292;6.000;2023-03-23T07:07:39;16.67;;;3.38;;
56537;SDS011;42435;53.292;6.000;2023-03-23T07:10:29;20.02;;;4.20;;
56537;SDS011;42435;53.292;6.000;2023-03-23T07:13:13;16.17;;;3.53;;
56537;SDS011;42435;53.292;6.000;2023-03-23T07:15:58;17.02;;;4.88;;
56537;SDS011;42435;53.292;6.000;2023-03-23T07:18:24;22.10;;;5.40;;
56537;SDS011;42435;53.292;6.000;2023-03-23T07:20:53;25.95;;;5.88;;
56537;SDS011;42435;53.292;6.000;2023-03-23T07:23:31;23.55;;;4.88;;
56537;SDS011;42435;53.292;6.000;2023-03-23T07:26:03;23.63;;;5.97;;
56537;SDS011;42435;53.292;6.000;2023-03-23T07:28:29;21.85;;;5.55;;
56537;SDS011;42435;53.292;6.000;2023-03-23T07:30:58;25.58;;;4.85;;
56537;SDS011;42435;53.292;6.000;2023-03-23T07:33:50;26.30;;;5.15;;
56537;SDS011;42435;53.292;6.000;2023-03-23T07:36:15;22.33;;;5.78;;
56537;SDS011;42435;53.292;6.000;2023-03-23T07:38:41;25.77;;;5.90;;
56537;SDS011;42435;53.292;6.000;2023-03-23T07:45:12;30.77;;;7.57;;
56537;SDS011;42435;53.292;6.000;2023-03-23T07:50:58;29.20;;;6.45;;
56537;SDS011;42435;53.292;6.000;2023-03-23T07:53:41;30.92;;;6.25;;
56537;SDS011;42435;53.292;6.000;2023-03-23T07:56:19;29.88;;;5.53;;
56537;SDS011;42435;53.292;6.000;2023-03-23T08:21:41;26.58;;;5.38;;
56537;SDS011;42435;53.292;6.000;2023-03-23T08:24:26;26.50;;;5.32;;
56537;SDS011;42435;53.292;6.000;2023-03-23T08:27:18;28.33;;;5.40;;
56537;SDS011;42435;53.292;6.000;2023-03-23T08:30:00;23.58;;;5.18;;
56537;SDS011;42435;53.292;6.000;2023-03-23T08:32:26;21.92;;;5.22;;
56537;SDS011;42435;53.292;6.000;2023-03-23T08:35:04;23.25;;;4.90;;
56537;SDS011;42435;53.292;6.000;2023-03-23T08:37:40;27.98;;;6.50;;
56537;SDS011;42435;53.292;6.000;2023-03-23T08:41:04;20.92;;;6.28;;
56537;SDS011;42435;53.292;6.000;2023-03-23T08:44:05;25.77;;;5.80;;
56537;SDS011;42435;53.292;6.000;2023-03-23T08:46:33;24.13;;;5.10;;
56537;SDS011;42435;53.292;6.000;2023-03-23T08:48:59;20.50;;;4.97;;
56537;SDS011;42435;53.292;6.000;2023-03-23T08:51:28;22.77;;;5.18;;
56537;SDS011;42435;53.292;6.000;2023-03-23T08:54:08;19.50;;;5.10;;
56537;SDS011;42435;53.292;6.000;2023-03-23T08:56:42;24.85;;;4.95;;
56537;SDS011;42435;53.292;6.000;2023-03-23T08:59:48;24.20;;;4.78;;
56537;SDS011;42435;53.292;6.000;2023-03-23T09:22:58;20.98;;;5.47;;
56537;SDS011;42435;53.292;6.000;2023-03-23T09:25:32;23.45;;;5.22;;
56537;SDS011;42435;53.292;6.000;2023-03-23T09:28:03;22.40;;;4.90;;
56537;SDS011;42435;53.292;6.000;2023-03-23T09:30:33;19.95;;;5.47;;
56537;SDS011;42435;53.292;6.000;2023-03-23T09:36:56;17.60;;;4.68;;
56537;SDS011;42435;53.292;6.000;2023-03-23T09:39:38;19.23;;;4.35;;
56537;SDS011;42435;53.292;6.000;2023-03-23T10:06:32;13.48;;;3.92;;
56537;SDS011;42435;53.292;6.000;2023-03-23T10:15:36;24.60;;;3.97;;
56537;SDS011;42435;53.292;6.000;2023-03-23T10:25:55;18.70;;;4.40;;
56537;SDS011;42435;53.292;6.000;2023-03-23T10:42:34;16.02;;;4.15;;
56537;SDS011;42435;53.292;6.000;2023-03-23T10:58:23;17.40;;;4.70;;
56537;SDS011;42435;53.292;6.000;2023-03-23T11:01:05;14.57;;;4.28;;
56537;SDS011;42435;53.292;6.000;2023-03-23T11:04:18;19.10;;;4.68;;
56537;SDS011;42435;53.292;6.000;2023-03-23T11:07:40;19.45;;;4.75;;
56537;SDS011;42435;53.292;6.000;2023-03-23T11:10:16;16.70;;;3.90;;
56537;SDS011;42435;53.292;6.000;2023-03-23T11:12:50;18.70;;;4.93;;
56537;SDS011;42435;53.292;6.000;2023-03-23T11:15:33;20.25;;;4.03;;
56537;SDS011;42435;53.292;6.000;2023-03-23T11:18:45;16.13;;;3.97;;
56537;SDS011;42435;53.292;6.000;2023-03-23T11:21:29;18.35;;;3.80;;
56537;SDS011;42435;53.292;6.000;2023-03-23T11:24:12;13.80;;;3.33;;
56537;SDS011;42435;53.292;6.000;2023-03-23T11:26:42;16.92;;;3.50;;
56537;SDS011;42435;53.292;6.000;2023-03-23T11:40:31;12.88;;;4.38;;
56537;SDS011;42435;53.292;6.000;2023-03-23T12:46:55;17.05;;;3.47;;
56537;SDS011;42435;53.292;6.000;2023-03-23T12:57:33;14.30;;;3.67;;
56537;SDS011;42435;53.292;6.000;2023-03-23T13:26:57;15.23;;;3.92;;
56537;SDS011;42435;53.292;6.000;2023-03-23T13:29:27;19.13;;;3.75;;
56537;SDS011;42435;53.292;6.000;2023-03-23T13:32:04;12.98;;;3.28;;
56537;SDS011;42435;53.292;6.000;2023-03-23T13:34:35;15.80;;;3.45;;
56537;SDS011;42435;53.292;6.000;2023-03-23T13:37:05;17.00;;;3.30;;
56537;SDS011;42435;53.292;6.000;2023-03-23T13:39:37;16.40;;;3.35;;
56537;SDS011;42435;53.292;6.000;2023-03-23T13:43:08;18.98;;;3.90;;
56537;SDS011;42435;53.292;6.000;2023-03-23T13:46:10;20.08;;;3.45;;
56537;SDS011;42435;53.292;6.000;2023-03-23T13:49:20;19.35;;;3.40;;
56537;SDS011;42435;53.292;6.000;2023-03-23T13:58:25;16.85;;;4.70;;
56537;SDS011;42435;53.292;6.000;2023-03-23T14:01:03;13.38;;;3.60;;
56537;SDS011;42435;53.292;6.000;2023-03-23T14:03:53;13.02;;;2.90;;
56537;SDS011;42435;53.292;6.000;2023-03-23T14:06:37;13.73;;;3.20;;
56537;SDS011;42435;53.292;6.000;2023-03-23T14:10:15;14.85;;;2.95;;
56537;SDS011;42435;53.292;6.000;2023-03-23T14:16:40;13.75;;;3.38;;
56537;SDS011;42435;53.292;6.000;2023-03-23T14:23:31;13.73;;;2.72;;
56537;SDS011;42435;53.292;6.000;2023-03-23T14:26:11;12.55;;;2.75;;
56537;SDS011;42435;53.292;6.000;2023-03-23T14:28:54;15.50;;;3.33;;
56537;SDS011;42435;53.292;6.000;2023-03-23T14:31:53;11.13;;;3.03;;
56537;SDS011;42435;53.292;6.000;2023-03-23T14:41:17;12.15;;;2.80;;
56537;SDS011;42435;53.292;6.000;2023-03-23T14:43:46;14.27;;;3.20;;
56537;SDS011;42435;53.292;6.000;2023-03-23T15:00:00;12.05;;;3.15;;
56537;SDS011;42435;53.292;6.000;2023-03-23T15:03:17;7.97;;;2.55;;
56537;SDS011;42435;53.292;6.000;2023-03-23T15:06:50;9.13;;;2.00;;
56537;SDS011;42435;53.292;6.000;2023-03-23T15:09:27;12.35;;;2.95;;
56537;SDS011;42435;53.292;6.000;2023-03-23T15:15:49;12.70;;;2.63;;
56537;SDS011;42435;53.292;6.000;2023-03-23T15:18:48;13.98;;;2.88;;
56537;SDS011;42435;53.292;6.000;2023-03-23T15:22:13;10.98;;;3.17;;
56537;SDS011;42435;53.292;6.000;2023-03-23T15:33:36;10.75;;;2.50;;
56537;SDS011;42435;53.292;6.000;2023-03-23T15:40:53;14.13;;;2.85;;
56537;SDS011;42435;53.292;6.000;2023-03-23T15:44:18;19.10;;;3.22;;
56537;SDS011;42435;53.292;6.000;2023-03-23T15:54:15;12.50;;;3.67;;
56537;SDS011;42435;53.292;6.000;2023-03-23T15:57:43;17.73;;;3.20;;
56537;SDS011;42435;53.292;6.000;2023-03-23T16:00:51;19.77;;;3.80;;
56537;SDS011;42435;53.292;6.000;2023-03-23T16:09:34;15.18;;;3.30;;
56537;SDS011;42435;53.292;6.000;2023-03-23T16:12:30;14.13;;;3.45;;
56537;SDS011;42435;53.292;6.000;2023-03-23T16:15:40;14.38;;;4.15;;
56537;SDS011;42435;53.292;6.000;2023-03-23T16:21:13;18.05;;;4.25;;
56537;SDS011;42435;53.292;6.000;2023-03-23T16:23:39;20.95;;;4.68;;
56537;SDS011;42435;53.292;6.000;2023-03-23T16:27:28;14.73;;;3.70;;
56537;SDS011;42435;53.292;6.000;2023-03-23T16:33:13;16.90;;;4.63;;
56537;SDS011;42435;53.292;6.000;2023-03-23T16:36:09;17.15;;;4.40;;
56537;SDS011;42435;53.292;6.000;2023-03-23T16:38:58;18.75;;;4.85;;
56537;SDS011;42435;53.292;6.000;2023-03-23T16:45:38;18.08;;;4.00;;
56537;SDS011;42435;53.292;6.000;2023-03-23T16:48:22;18.40;;;4.28;;
56537;SDS011;42435;53.292;6.000;2023-03-23T16:52:10;18.17;;;4.20;;
56537;SDS011;42435;53.292;6.000;2023-03-23T16:55:03;18.67;;;4.40;;
56537;SDS011;42435;53.292;6.000;2023-03-23T17:01:32;23.33;;;5.93;;
56537;SDS011;42435;53.292;6.000;2023-03-23T17:04:18;24.70;;;5.45;;
56537;SDS011;42435;53.292;6.000;2023-03-23T17:07:15;16.98;;;4.57;;
56537;SDS011;42435;53.292;6.000;2023-03-23T17:09:43;17.23;;;4.82;;
56537;SDS011;42435;53.292;6.000;2023-03-23T17:12:33;25.23;;;5.60;;
56537;SDS011;42435;53.292;6.000;2023-03-23T17:16:01;25.17;;;5.60;;
56537;SDS011;42435;53.292;6.000;2023-03-23T17:19:01;21.42;;;5.15;;
56537;SDS011;42435;53.292;6.000;2023-03-23T17:22:38;23.25;;;6.15;;
56537;SDS011;42435;53.292;6.000;2023-03-23T17:25:38;20.25;;;4.97;;
56537;SDS011;42435;53.292;6.000;2023-03-23T17:31:24;19.05;;;5.97;;
56537;SDS011;42435;53.292;6.000;2023-03-23T17:34:39;21.85;;;5.10;;
56537;SDS011;42435;53.292;6.000;2023-03-23T17:38:10;20.05;;;5.07;;
56537;SDS011;42435;53.292;6.000;2023-03-23T18:00:59;27.63;;;5.47;;
56537;SDS011;42435;53.292;6.000;2023-03-23T18:08:05;17.33;;;4.32;;
56537;SDS011;42435;53.292;6.000;2023-03-23T18:10:47;22.40;;;5.03;;
56537;SDS011;42435;53.292;6.000;2023-03-23T18:13:31;16.52;;;5.07;;
56537;SDS011;42435;53.292;6.000;2023-03-23T18:16:36;22.42;;;6.10;;
56537;SDS011;42435;53.292;6.000;2023-03-23T18:19:35;24.52;;;5.20;;
56537;SDS011;42435;53.292;6.000;2023-03-23T18:22:38;26.63;;;4.68;;
56537;SDS011;42435;53.292;6.000;2023-03-23T18:25:36;19.65;;;4.45;;
56537;SDS011;42435;53.292;6.000;2023-03-23T18:28:16;25.77;;;6.13;;
56537;SDS011;42435;53.292;6.000;2023-03-23T18:31:05;20.52;;;6.03;;
56537;SDS011;42435;53.292;6.000;2023-03-23T18:33:42;28.50;;;6.95;;
56537;SDS011;42435;53.292;6.000;2023-03-23T18:36:42;15.90;;;5.07;;
56537;SDS011;42435;53.292;6.000;2023-03-23T18:39:39;24.25;;;5.20;;
56537;SDS011;42435;53.292;6.000;2023-03-23T18:42:34;24.05;;;4.88;;
56537;SDS011;42435;53.292;6.000;2023-03-23T18:45:17;23.98;;;5.38;;
56537;SDS011;42435;53.292;6.000;2023-03-23T18:47:59;20.42;;;5.38;;
56537;SDS011;42435;53.292;6.000;2023-03-23T18:53:56;20.17;;;4.22;;
56537;SDS011;42435;53.292;6.000;2023-03-23T18:56:35;22.60;;;5.00;;
56537;SDS011;42435;53.292;6.000;2023-03-23T18:59:17;21.58;;;4.38;;
56537;SDS011;42435;53.292;6.000;2023-03-23T19:02:09;21.98;;;5.13;;
56537;SDS011;42435;53.292;6.000;2023-03-23T19:04:47;17.88;;;4.10;;
56537;SDS011;42435;53.292;6.000;2023-03-23T19:07:50;24.40;;;5.38;;
56537;SDS011;42435;53.292;6.000;2023-03-23T19:10:28;19.35;;;5.38;;
56537;SDS011;42435;53.292;6.000;2023-03-23T19:16:21;20.38;;;4.65;;
56537;SDS011;42435;53.292;6.000;2023-03-23T19:19:11;21.15;;;4.90;;
56537;SDS011;42435;53.292;6.000;2023-03-23T19:22:08;18.27;;;5.38;;
56537;SDS011;42435;53.292;6.000;2023-03-23T19:28:05;23.58;;;5.55;;
56537;SDS011;42435;53.292;6.000;2023-03-23T19:30:45;24.38;;;5.53;;
56537;SDS011;42435;53.292;6.000;2023-03-23T19:33:23;21.85;;;4.80;;
56537;SDS011;42435;53.292;6.000;2023-03-23T19:39:59;19.58;;;4.72;;
56537;SDS011;42435;53.292;6.000;2023-03-23T19:42:46;30.08;;;7.22;;
56537;SDS011;42435;53.292;6.000;2023-03-23T19:45:24;19.50;;;6.20;;
56537;SDS011;42435;53.292;6.000;2023-03-23T19:48:06;25.17;;;5.72;;
56537;SDS011;42435;53.292;6.000;2023-03-23T19:50:34;22.13;;;6.90;;
56537;SDS011;42435;53.292;6.000;2023-03-23T19:53:16;14.70;;;5.00;;
56537;SDS011;42435;53.292;6.000;2023-03-23T19:56:25;21.50;;;6.30;;
56537;SDS011;42435;53.292;6.000;2023-03-23T19:59:02;19.48;;;4.97;;
56537;SDS011;42435;53.292;6.000;2023-03-23T20:05:11;18.80;;;4.28;;
56537;SDS011;42435;53.292;6.000;2023-03-23T20:11:08;18.98;;;5.63;;
56537;SDS011;42435;53.292;6.000;2023-03-23T20:24:01;16.75;;;5.68;;
56537;SDS011;42435;53.292;6.000;2023-03-23T20:26:44;23.13;;;5.65;;
56537;SDS011;42435;53.292;6.000;2023-03-23T20:29:30;17.50;;;5.55;;
56537;SDS011;42435;53.292;6.000;2023-03-23T20:32:22;18.02;;;5.05;;
56537;SDS011;42435;53.292;6.000;2023-03-23T20:35:01;18.00;;;5.68;;
56537;SDS011;42435;53.292;6.000;2023-03-23T20:40:26;21.75;;;7.72;;
56537;SDS011;42435;53.292;6.000;2023-03-23T20:43:07;16.08;;;6.07;;
56537;SDS011;42435;53.292;6.000;2023-03-23T20:48:49;20.08;;;7.25;;
56537;SDS011;42435;53.292;6.000;2023-03-23T20:51:31;18.13;;;7.20;;
56537;SDS011;42435;53.292;6.000;2023-03-23T20:54:59;22.40;;;8.07;;
56537;SDS011;42435;53.292;6.000;2023-03-23T21:00:24;16.35;;;6.45;;
56537;SDS011;42435;53.292;6.000;2023-03-23T21:02:57;14.30;;;6.22;;
56537;SDS011;42435;53.292;6.000;2023-03-23T21:05:29;17.73;;;7.07;;
56537;SDS011;42435;53.292;6.000;2023-03-23T21:08:16;20.40;;;7.35;;
56537;SDS011;42435;53.292;6.000;2023-03-23T21:10:45;15.50;;;5.88;;
56537;SDS011;42435;53.292;6.000;2023-03-23T21:16:43;12.25;;;5.22;;
56537;SDS011;42435;53.292;6.000;2023-03-23T21:19:12;12.23;;;5.25;;
56537;SDS011;42435;53.292;6.000;2023-03-23T21:21:44;13.27;;;5.38;;
56537;SDS011;42435;53.292;6.000;2023-03-23T21:24:28;15.38;;;5.32;;
56537;SDS011;42435;53.292;6.000;2023-03-23T21:27:10;12.18;;;5.00;;
56537;SDS011;42435;53.292;6.000;2023-03-23T21:29:42;15.77;;;5.55;;
56537;SDS011;42435;53.292;6.000;2023-03-23T21:32:52;12.98;;;5.95;;
56537;SDS011;42435;53.292;6.000;2023-03-23T21:35:31;13.85;;;6.32;;
56537;SDS011;42435;53.292;6.000;2023-03-23T21:38:42;17.35;;;6.35;;
56537;SDS011;42435;53.292;6.000;2023-03-23T21:41:16;21.17;;;6.88;;
56537;SDS011;42435;53.292;6.000;2023-03-23T21:44:03;15.13;;;7.45;;
56537;SDS011;42435;53.292;6.000;2023-03-23T21:46:50;13.15;;;6.03;;
56537;SDS011;42435;53.292;6.000;2023-03-23T21:53:04;14.73;;;5.85;;
56537;SDS011;42435;53.292;6.000;2023-03-23T21:55:42;16.50;;;6.50;;
56537;SDS011;42435;53.292;6.000;2023-03-23T21:58:28;12.02;;;5.82;;
56537;SDS011;42435;53.292;6.000;2023-03-23T22:01:11;15.85;;;6.65;;
56537;SDS011;42435;53.292;6.000;2023-03-23T22:03:57;12.68;;;7.40;;
56537;SDS011;42435;53.292;6.000;2023-03-23T22:06:23;15.10;;;5.82;;
56537;SDS011;42435;53.292;6.000;2023-03-23T22:08:59;19.42;;;6.70;;
56537;SDS011;42435;53.292;6.000;2023-03-23T22:11:56;12.90;;;6.72;;
56537;SDS011;42435;53.292;6.000;2023-03-23T22:14:54;11.57;;;7.05;;
56537;SDS011;42435;53.292;6.000;2023-03-23T22:17:26;15.50;;;7.67;;
56537;SDS011;42435;53.292;6.000;2023-03-23T22:19:53;15.07;;;7.57;;
56537;SDS011;42435;53.292;6.000;2023-03-23T22:22:25;13.98;;;7.90;;
56537;SDS011;42435;53.292;6.000;2023-03-23T22:25:13;23.17;;;9.43;;
56537;SDS011;42435;53.292;6.000;2023-03-23T22:28:18;14.32;;;7.80;;
56537;SDS011;42435;53.292;6.000;2023-03-23T22:30:47;21.73;;;8.98;;
56537;SDS011;42435;53.292;6.000;2023-03-23T22:33:12;19.92;;;9.10;;
56537;SDS011;42435;53.292;6.000;2023-03-23T22:42:05;16.67;;;8.10;;
56537;SDS011;42435;53.292;6.000;2023-03-23T22:44:30;18.40;;;8.30;;
56537;SDS011;42435;53.292;6.000;2023-03-23T22:47:45;18.98;;;8.55;;
56537;SDS011;42435;53.292;6.000;2023-03-23T22:50:26;14.00;;;7.90;;
56537;SDS011;42435;53.292;6.000;2023-03-23T22:56:36;23.23;;;9.02;;
56537;SDS011;42435;53.292;6.000;2023-03-23T23:03:11;21.42;;;9.40;;
56537;SDS011;42435;53.292;6.000;2023-03-23T23:06:33;21.33;;;9.50;;
56537;SDS011;42435;53.292;6.000;2023-03-23T23:09:02;18.73;;;8.90;;
56537;SDS011;42435;53.292;6.000;2023-03-23T23:14:46;16.67;;;9.00;;
56537;SDS011;42435;53.292;6.000;2023-03-23T23:17:25;19.83;;;9.35;;
56537;SDS011;42435;53.292;6.000;2023-03-23T23:20:03;16.83;;;8.55;;
56537;SDS011;42435;53.292;6.000;2023-03-23T23:25:41;15.15;;;6.60;;
56537;SDS011;42435;53.292;6.000;2023-03-23T23:29:00;15.60;;;7.60;;
56537;SDS011;42435;53.292;6.000;2023-03-23T23:31:38;18.30;;;7.65;;